Republic Airport
KFRG : now visible

Airfield :











YOU CAN JOIN US ON...

 
LOGIN :

Register | Disclaimer

   EN    FR    IT 

 









Legend :    VFR   Marginal VFR   IFR   Intensive IFR   Very Intensive IFR
Visi :
Ceiling :
>= 8 km
>= 3000ft
5 to 8 km
1000 to 3000 ft
1500m to 5 km
500 to 1000 ft
800 to 1500m
200 to 500 ft
< 800m
< 200 ft
Symbols :   Thunderstorms  Fog  Heavy snow  Heavy precipitations  Wind > 20 kt






- Airport Elevation : 82 ft


KFRG - Republic

CURRENT METAR :
  • 221432Z 05003KT 1 3/4SM OVC010 20/17 A3026 RMK AO2 SFC VIS 10 T02000172

EXPIRED METARs :
  • 221353Z 06004KT 1 3/4SM OVC005 18/17 A3027 RMK AO2 SFC VIS 9 SLP249 T01830172
  • 221322Z 00000KT 1SM OVC002 18/18 A3026 RMK AO2 SFC VIS 7 CIG 002V006 T01830178
  • 221315Z 05003KT 1/2SM BR OVC002 18/18 A3026 RMK AO2 SFC VIS 5 T01830178
  • 221253Z 00000KT 1/2SM BR OVC003 18/17 A3026 RMK AO2 SFC VIS 1 1/2 SLP247 T01830172
  • 221241Z 08003KT 1/2SM BR VV003 18/17 A3026 RMK AO2 SFC VIS 3/4 T01780172
  • 221225Z 04004KT 1/2SM BR VV002 18/17 A3026 RMK AO2 SFC VIS 3/4 T01780167
  • 221218Z 03005KT 1SM BR OVC002 18/17 A3026 RMK AO2 SFC VIS 5 T01780167
  • 221153Z 06003KT 1/4SM FG VV002 18/17 A3025 RMK AO2 SLP243 T01780167 10178 20172 53010

TAF N/A
KZNY FIR / North America



MET'MAP, your aeronautical weather chart ! - Copyright ORBIFLY December 2007 - Disclaimer

ORBIFLY MET'MAP TEAM :

Programming & Development : Alexandra Zaïnal
Concept & original design : Baudouin d'Aumeries
Assistance for programming : Marc-Olivier Méhu
Technical & hardware support : Manuel Goepfert

Contact : metmap@orbifly.com




SOURCES & CREDITS :

   NOAA       Earth
Advisory